X10 weather

Belle Glade State Municipal Airport
Belle Glade, Florida, United States

Public forecast

Using degrees Fahrenheit for public forecast. Weather courtesy of forecast.io.

METAR (pilot weather report)

Closest report is Palm Beach International Airport, 30.4 nm (56.3 km) E. Retrieved 2019/06/18 09:53 UTC (8 minutes ago):

KPBI 180953Z 19004KT 10SM FEW020 FEW100 BKN250 24/21 A3004 RMK AO2 SLP171 T02390211

TAF (pilot weather forecast)

Closest forecast is Palm Beach International Airport, 30.4 nm (56.3 km) E. Retrieved 2019/06/18 06:22 UTC (4 hours ago):

TAF KPBI 180520Z 1806/1906 15010KT P6SM FEW020 BKN100 BKN200 FM180700 15008KT P6SM VCSH SCT020 BKN060 BKN100 FM181400 18011KT P6SM VCTS SCT020CB BKN035 BKN060 PROB30 1817/1822 3SM TSRA SCT015 BKN025CB BKN040 FM182200 23009KT P6SM VCSH FEW020 SCT060 BKN200